createdAt,value
2023-03-06T00:00:51.898Z,-2.46
2023-03-06T00:03:19.430Z,-2.49
2023-03-06T00:05:47.183Z,-2.51
2023-03-06T00:08:13.801Z,-2.52
2023-03-06T00:10:40.612Z,-2.54
2023-03-06T00:13:11.228Z,-2.57
2023-03-06T00:15:37.949Z,-2.55
2023-03-06T00:18:05.651Z,-2.57
2023-03-06T00:20:33.524Z,-2.57
2023-03-06T00:23:00.299Z,-2.59
2023-03-06T00:25:27.063Z,-2.59
2023-03-06T00:27:53.572Z,-2.61
2023-03-06T00:30:22.982Z,-2.60
2023-03-06T00:32:49.728Z,-2.61
2023-03-06T00:35:16.549Z,-2.60
2023-03-06T00:37:43.898Z,-2.61
2023-03-06T00:40:19.253Z,-2.60
2023-03-06T00:42:47.126Z,-2.59
2023-03-06T00:45:14.291Z,-2.60
2023-03-06T00:47:41.558Z,-2.60
2023-03-06T00:50:10.448Z,-2.61
2023-03-06T00:52:37.418Z,-2.63
2023-03-06T00:55:05.296Z,-2.63
2023-03-06T00:57:31.833Z,-2.64
2023-03-06T00:59:58.585Z,-2.64
2023-03-06T01:02:25.549Z,-2.64
2023-03-06T01:04:54.862Z,-2.62
2023-03-06T01:07:21.684Z,-2.63
2023-03-06T01:09:48.420Z,-2.64
2023-03-06T01:12:15.596Z,-2.66
2023-03-06T01:14:42.181Z,-2.66
2023-03-06T01:17:09.898Z,-2.64
2023-03-06T01:19:36.631Z,-2.66
2023-03-06T01:22:03.181Z,-2.65
2023-03-06T01:24:29.706Z,-2.63
2023-03-06T01:26:56.368Z,-2.63
2023-03-06T01:29:23.015Z,-2.65
2023-03-06T01:31:49.612Z,-2.67
2023-03-06T01:34:16.231Z,-2.66
2023-03-06T01:36:42.933Z,-2.67
2023-03-06T01:39:09.922Z,-2.68
2023-03-06T01:41:36.702Z,-2.69
2023-03-06T01:44:03.397Z,-2.70
2023-03-06T01:46:56.904Z,-2.70
2023-03-06T01:49:28.780Z,-2.72
2023-03-06T01:52:01.218Z,-2.74
2023-03-06T01:54:35.338Z,-2.73
2023-03-06T01:57:09.028Z,-2.77
2023-03-06T01:59:37.861Z,-2.79
2023-03-06T02:02:07.559Z,-2.79
2023-03-06T02:04:37.654Z,-2.80
2023-03-06T02:07:05.557Z,-2.80
2023-03-06T02:09:35.326Z,-2.80
2023-03-06T02:12:08.616Z,-2.79
2023-03-06T02:14:35.452Z,-2.78
2023-03-06T02:17:03.439Z,-2.77
2023-03-06T02:19:55.674Z,-2.74
2023-03-06T02:22:25.253Z,-2.71
2023-03-06T02:25:07.252Z,-2.70
2023-03-06T02:27:34.144Z,-2.70
2023-03-06T02:30:06.409Z,-2.69
2023-03-06T02:32:33.213Z,-2.67
2023-03-06T02:34:59.824Z,-2.67
2023-03-06T02:37:28.190Z,-2.68
2023-03-06T02:40:08.929Z,-2.68
2023-03-06T02:42:35.547Z,-2.64
2023-03-06T02:45:04.891Z,-2.61
2023-03-06T02:47:31.425Z,-2.59
2023-03-06T02:49:58.104Z,-2.57
2023-03-06T02:52:24.678Z,-2.55
2023-03-06T02:54:51.187Z,-2.52
2023-03-06T02:57:17.734Z,-2.52
2023-03-06T02:59:44.772Z,-2.50
2023-03-06T03:02:11.525Z,-2.48
2023-03-06T03:04:38.238Z,-2.45
2023-03-06T03:07:05.758Z,-2.41
2023-03-06T03:09:36.224Z,-2.38
2023-03-06T03:12:05.165Z,-2.34
2023-03-06T03:14:32.525Z,-2.30
2023-03-06T03:17:00.822Z,-2.26
2023-03-06T03:19:27.700Z,-2.26
2023-03-06T03:21:55.090Z,-2.26
2023-03-06T03:24:22.882Z,-2.26
2023-03-06T03:26:49.932Z,-2.26
2023-03-06T03:29:19.921Z,-2.22
2023-03-06T03:31:48.009Z,-2.24
2023-03-06T03:34:15.229Z,-2.24
2023-03-06T03:36:41.874Z,-2.25
2023-03-06T03:39:10.019Z,-2.24
2023-03-06T03:41:37.266Z,-2.26
2023-03-06T03:44:06.308Z,-2.26
2023-03-06T03:46:33.049Z,-2.23
2023-03-06T03:49:00.216Z,-2.22
2023-03-06T03:51:27.335Z,-2.23
2023-03-06T03:53:56.148Z,-2.21
2023-03-06T03:56:24.070Z,-2.22
2023-03-06T03:58:56.288Z,-2.22
2023-03-06T04:01:24.066Z,-2.22
2023-03-06T04:03:50.681Z,-2.22
2023-03-06T04:06:17.940Z,-2.20
2023-03-06T04:08:46.422Z,-2.19
2023-03-06T04:11:13.304Z,-2.17
2023-03-06T04:13:40.020Z,-2.16
2023-03-06T04:16:06.955Z,-2.17
2023-03-06T04:18:34.000Z,-2.16
2023-03-06T04:21:04.008Z,-2.14
2023-03-06T04:23:30.868Z,-2.13
2023-03-06T04:25:57.673Z,-2.10
2023-03-06T04:28:24.749Z,-2.10
2023-03-06T04:30:51.430Z,-2.12
2023-03-06T04:33:18.393Z,-2.13
2023-03-06T04:35:44.957Z,-2.14
2023-03-06T04:38:16.004Z,-2.16
2023-03-06T04:40:44.806Z,-2.15
2023-03-06T04:43:11.735Z,-2.17
2023-03-06T04:45:38.299Z,-2.17
2023-03-06T04:48:05.231Z,-2.19
2023-03-06T04:50:32.488Z,-2.18
2023-03-06T04:53:00.597Z,-2.18
2023-03-06T04:55:27.835Z,-2.17
2023-03-06T04:57:54.480Z,-2.19
2023-03-06T05:00:24.914Z,-2.18
2023-03-06T05:02:51.859Z,-2.20
2023-03-06T05:05:18.862Z,-2.22
2023-03-06T05:07:46.172Z,-2.22
2023-03-06T05:10:16.039Z,-2.23
2023-03-06T05:12:43.506Z,-2.26
2023-03-06T05:15:11.476Z,-2.28
2023-03-06T05:17:38.502Z,-2.31
2023-03-06T05:20:10.148Z,-2.30
2023-03-06T05:22:36.702Z,-2.31
2023-03-06T05:25:04.399Z,-2.35
2023-03-06T05:27:31.023Z,-2.36
2023-03-06T05:29:57.672Z,-2.37
2023-03-06T05:32:24.344Z,-2.38
2023-03-06T05:34:51.263Z,-2.36
2023-03-06T05:37:17.938Z,-2.35
2023-03-06T05:39:44.832Z,-2.32
2023-03-06T05:42:11.362Z,-2.30
2023-03-06T05:44:37.942Z,-2.29
2023-03-06T05:47:04.631Z,-2.26
2023-03-06T05:49:33.152Z,-2.19
2023-03-06T05:52:00.806Z,-2.12
2023-03-06T05:54:27.317Z,-2.08
2023-03-06T05:56:53.973Z,-2.03
2023-03-06T05:59:20.470Z,-2.02
2023-03-06T06:01:47.054Z,-1.98
2023-03-06T06:04:14.339Z,-1.95
2023-03-06T06:06:40.892Z,-1.92
2023-03-06T06:09:08.381Z,-1.84
2023-03-06T06:11:34.898Z,-1.80
2023-03-06T06:14:01.426Z,-1.80
2023-03-06T06:16:27.960Z,-1.79
2023-03-06T06:18:56.249Z,-1.76
2023-03-06T06:21:22.781Z,-1.73
2023-03-06T06:23:49.363Z,-1.72
2023-03-06T06:26:16.039Z,-1.70
2023-03-06T06:28:42.740Z,-1.71
2023-03-06T06:31:11.733Z,-1.73
2023-03-06T06:33:40.269Z,-1.74
2023-03-06T06:36:18.540Z,-1.74
2023-03-06T06:38:45.203Z,-1.69
2023-03-06T06:41:36.100Z,-1.64
2023-03-06T06:43:59.173Z,-1.53
2023-03-06T06:47:14.301Z,-1.40
2023-03-06T06:49:14.075Z,-1.25
2023-03-06T06:51:41.032Z,-1.11
2023-03-06T06:54:07.929Z,-1.04
2023-03-06T06:56:34.701Z,-1.01
2023-03-06T06:59:15.754Z,-1.00
2023-03-06T07:01:43.130Z,-0.99
2023-03-06T07:04:13.109Z,-0.96
2023-03-06T07:06:42.213Z,-0.89
2023-03-06T07:09:09.507Z,-0.86
2023-03-06T07:11:37.030Z,-0.82
2023-03-06T07:14:03.580Z,-0.80
2023-03-06T07:16:30.318Z,-0.74
2023-03-06T07:18:56.949Z,-0.72
2023-03-06T07:21:23.704Z,-0.67
2023-03-06T07:23:50.260Z,-0.62
2023-03-06T07:26:16.965Z,-0.54
2023-03-06T07:28:52.415Z,-0.49
2023-03-06T07:31:22.120Z,-0.37
2023-03-06T07:33:49.994Z,-0.34
2023-03-06T07:36:17.590Z,-0.34
2023-03-06T07:38:44.462Z,-0.33
2023-03-06T07:41:13.178Z,-0.29
2023-03-06T07:43:40.891Z,-0.27
2023-03-06T07:46:08.520Z,-0.19
2023-03-06T07:48:36.417Z,-0.11
2023-03-06T07:51:06.454Z,-0.04
2023-03-06T07:53:34.039Z,0.04
2023-03-06T07:56:07.870Z,0.09
2023-03-06T07:58:35.992Z,0.13
2023-03-06T08:01:08.617Z,0.16
2023-03-06T08:03:36.882Z,0.17
2023-03-06T08:06:12.658Z,0.26
2023-03-06T08:08:41.734Z,0.28
2023-03-06T08:11:13.380Z,0.29
2023-03-06T08:13:41.156Z,0.28
2023-03-06T08:16:08.373Z,0.29
2023-03-06T08:18:35.978Z,0.34
2023-03-06T08:21:07.176Z,0.36
2023-03-06T08:23:34.979Z,0.43
2023-03-06T08:26:13.916Z,0.54
2023-03-06T08:28:40.809Z,0.61
2023-03-06T08:31:29.590Z,0.70
2023-03-06T08:33:58.620Z,0.78
2023-03-06T08:36:25.262Z,0.84
2023-03-06T08:38:52.338Z,0.97
2023-03-06T08:41:20.388Z,1.08
2023-03-06T08:43:47.256Z,1.15
2023-03-06T08:46:13.872Z,1.21
2023-03-06T08:48:40.921Z,1.17
2023-03-06T08:51:09.118Z,1.10
2023-03-06T08:53:43.210Z,1.11
2023-03-06T08:56:24.353Z,1.13
2023-03-06T08:58:51.749Z,1.13
2023-03-06T09:01:26.963Z,1.19
2023-03-06T09:03:55.859Z,1.26
2023-03-06T09:06:23.726Z,1.31
2023-03-06T09:08:51.731Z,1.37
2023-03-06T09:11:19.752Z,1.37
2023-03-06T09:13:46.768Z,1.46
2023-03-06T09:16:13.496Z,1.59
2023-03-06T09:18:40.356Z,1.66
2023-03-06T09:21:08.605Z,1.70
2023-03-06T09:23:38.725Z,1.71
2023-03-06T09:26:06.754Z,1.72
2023-03-06T09:28:36.413Z,1.79
2023-03-06T09:31:07.741Z,1.89
2023-03-06T09:33:34.436Z,2.00
2023-03-06T09:36:01.941Z,2.10
2023-03-06T09:38:29.191Z,2.17
2023-03-06T09:41:11.777Z,2.26
2023-03-06T09:43:45.815Z,2.36
2023-03-06T09:46:24.313Z,2.46
2023-03-06T09:49:00.606Z,2.55
2023-03-06T09:51:33.104Z,2.59
2023-03-06T09:54:13.655Z,2.59
2023-03-06T09:56:48.318Z,2.56
2023-03-06T09:59:24.324Z,2.57
2023-03-06T10:02:01.116Z,2.63
2023-03-06T10:04:36.130Z,2.65
2023-03-06T10:07:19.632Z,2.68
2023-03-06T10:09:59.234Z,2.72
2023-03-06T10:12:28.942Z,2.74
2023-03-06T10:15:13.726Z,2.78
2023-03-06T10:17:41.914Z,2.75
2023-03-06T10:20:31.077Z,2.77
2023-03-06T10:23:06.860Z,2.83
2023-03-06T10:25:49.326Z,2.86
2023-03-06T10:28:20.569Z,2.87
2023-03-06T10:31:32.618Z,2.89
2023-03-06T10:34:22.143Z,2.94
2023-03-06T10:36:49.959Z,3.05
2023-03-06T10:39:19.202Z,3.12
2023-03-06T10:41:47.213Z,3.19
2023-03-06T10:44:15.336Z,3.25
2023-03-06T10:46:45.300Z,3.31
2023-03-06T10:49:23.470Z,3.40
2023-03-06T10:51:57.933Z,3.44
2023-03-06T10:54:25.916Z,3.47
2023-03-06T10:56:52.492Z,3.46
2023-03-06T10:59:27.599Z,3.42
2023-03-06T11:02:15.229Z,3.40
2023-03-06T11:04:46.616Z,3.41
2023-03-06T11:07:21.021Z,3.40
2023-03-06T11:09:56.592Z,3.43
2023-03-06T11:12:31.670Z,3.40
2023-03-06T11:15:10.016Z,3.47
2023-03-06T11:17:48.992Z,3.43
2023-03-06T11:20:20.002Z,3.36
2023-03-06T11:22:51.699Z,3.32
2023-03-06T11:25:20.318Z,3.33
2023-03-06T11:27:55.151Z,3.34
2023-03-06T11:30:31.874Z,3.36
2023-03-06T11:33:02.661Z,3.44
2023-03-06T11:36:00.489Z,3.52
2023-03-06T11:38:34.938Z,3.66
2023-03-06T11:41:12.694Z,3.72
2023-03-06T11:44:07.570Z,3.79
2023-03-06T11:46:40.280Z,3.81
2023-03-06T11:49:25.489Z,3.70
2023-03-06T11:52:02.099Z,3.61
2023-03-06T11:54:28.671Z,3.56
2023-03-06T11:57:06.000Z,3.56
2023-03-06T11:59:35.135Z,3.62
2023-03-06T12:02:21.235Z,3.68
2023-03-06T12:04:56.673Z,3.72
2023-03-06T12:07:33.427Z,3.75
2023-03-06T12:10:38.062Z,3.73
2023-03-06T12:16:15.631Z,3.63
2023-03-06T12:18:51.033Z,3.61
2023-03-06T12:21:32.587Z,3.67
2023-03-06T12:24:16.838Z,3.77
2023-03-06T12:27:16.050Z,3.83
2023-03-06T12:30:10.193Z,3.84
2023-03-06T12:32:48.961Z,3.81
2023-03-06T12:35:18.345Z,3.78
2023-03-06T12:38:29.626Z,3.74
2023-03-06T12:41:20.853Z,3.72
2023-03-06T12:44:05.928Z,3.72
2023-03-06T12:46:43.366Z,3.68
2023-03-06T12:49:33.055Z,3.64
2023-03-06T12:52:01.672Z,3.57
2023-03-06T12:54:32.714Z,3.55
2023-03-06T12:57:00.102Z,3.57
2023-03-06T12:59:38.579Z,3.51
2023-03-06T13:02:05.119Z,3.47
2023-03-06T13:04:47.521Z,3.48
2023-03-06T13:07:16.720Z,3.49
2023-03-06T13:10:05.188Z,3.53
2023-03-06T13:12:49.244Z,3.51
2023-03-06T13:15:43.372Z,3.53
2023-03-06T13:18:21.833Z,3.57
2023-03-06T13:20:48.380Z,3.61
2023-03-06T13:23:33.796Z,3.63
2023-03-06T13:26:08.818Z,3.65
2023-03-06T13:28:51.808Z,3.67
2023-03-06T13:31:33.597Z,3.68
2023-03-06T13:34:02.846Z,3.61
2023-03-06T13:36:29.433Z,3.57
2023-03-06T13:39:00.653Z,3.51
2023-03-06T13:41:30.173Z,3.40
2023-03-06T13:44:05.305Z,3.27
2023-03-06T13:46:35.921Z,3.20
2023-03-06T13:49:12.233Z,3.14
2023-03-06T13:52:02.108Z,2.92
2023-03-06T13:54:41.021Z,2.69
2023-03-06T13:57:16.934Z,2.44
2023-03-06T14:00:12.046Z,2.20
2023-03-06T14:03:16.496Z,1.96
2023-03-06T14:05:48.955Z,1.82
2023-03-06T14:08:19.241Z,1.70
2023-03-06T14:10:48.580Z,1.59
2023-03-06T14:13:19.659Z,1.51
2023-03-06T14:15:52.207Z,1.53
2023-03-06T14:18:20.788Z,1.54
2023-03-06T14:21:02.228Z,1.51
2023-03-06T14:23:35.001Z,1.50
2023-03-06T14:26:04.826Z,1.44
2023-03-06T14:28:33.593Z,1.42
2023-03-06T14:31:02.292Z,1.39
2023-03-06T14:33:34.061Z,1.27
2023-03-06T14:36:04.310Z,1.22
2023-03-06T14:38:38.150Z,1.17
2023-03-06T14:41:05.892Z,1.17
2023-03-06T14:43:32.851Z,1.14
2023-03-06T14:46:05.869Z,1.12
2023-03-06T14:48:43.824Z,1.14
2023-03-06T14:51:21.445Z,1.19
2023-03-06T14:53:53.581Z,1.25
2023-03-06T14:56:22.804Z,1.32
2023-03-06T14:58:52.114Z,1.38
2023-03-06T15:01:40.497Z,1.44
2023-03-06T15:04:29.780Z,1.47
2023-03-06T15:06:58.539Z,1.49
2023-03-06T15:09:29.651Z,1.57
2023-03-06T15:12:29.269Z,1.60
2023-03-06T15:15:22.827Z,1.64
2023-03-06T15:17:49.549Z,1.76
2023-03-06T15:20:55.304Z,1.80
2023-03-06T15:23:34.077Z,1.82
2023-03-06T15:26:30.888Z,1.84
2023-03-06T15:29:24.680Z,1.82
2023-03-06T15:31:51.383Z,1.81
2023-03-06T15:34:24.128Z,1.78
2023-03-06T15:36:53.621Z,1.79
2023-03-06T15:39:25.886Z,1.79
2023-03-06T15:42:15.500Z,1.73
2023-03-06T15:44:42.264Z,1.69
2023-03-06T15:47:11.338Z,1.65
2023-03-06T15:49:39.337Z,1.62
2023-03-06T15:52:06.763Z,1.60
2023-03-06T15:54:33.681Z,1.58
2023-03-06T15:57:02.207Z,1.57
2023-03-06T15:59:32.892Z,1.56
2023-03-06T16:02:03.717Z,1.55
2023-03-06T16:04:30.327Z,1.55
2023-03-06T16:06:56.958Z,1.54
2023-03-06T16:15:28.274Z,1.48
2023-03-06T16:17:57.531Z,1.40
2023-03-06T16:20:28.335Z,1.40
2023-03-06T16:22:56.644Z,1.36
2023-03-06T16:25:27.751Z,1.33
2023-03-06T16:27:58.883Z,1.31
2023-03-06T16:30:33.380Z,1.32
2023-03-06T16:33:01.975Z,1.31
2023-03-06T16:35:29.950Z,1.32
2023-03-06T16:37:59.874Z,1.28
2023-03-06T16:40:37.740Z,1.29
2023-03-06T16:43:05.783Z,1.21
2023-03-06T16:45:37.651Z,1.16
2023-03-06T16:48:06.383Z,1.10
2023-03-06T16:50:38.581Z,1.02
2023-03-06T16:53:07.848Z,0.88
2023-03-06T16:55:36.033Z,0.71
2023-03-06T16:58:04.533Z,0.65
2023-03-06T17:00:34.229Z,0.59
2023-03-06T17:03:02.705Z,0.53
2023-03-06T17:05:33.868Z,0.52
2023-03-06T17:08:02.096Z,0.49
2023-03-06T17:10:30.876Z,0.45
2023-03-06T17:12:59.469Z,0.48
2023-03-06T17:15:27.407Z,0.47
2023-03-06T17:17:55.700Z,0.50
2023-03-06T17:20:23.915Z,0.51
2023-03-06T17:22:51.943Z,0.48
2023-03-06T17:25:19.990Z,0.46
2023-03-06T17:27:48.006Z,0.44
2023-03-06T17:30:16.366Z,0.44
2023-03-06T17:32:44.375Z,0.42
2023-03-06T17:35:13.018Z,0.41
2023-03-06T17:37:40.959Z,0.41
2023-03-06T17:40:10.200Z,0.39
2023-03-06T17:42:38.123Z,0.36
2023-03-06T17:45:09.624Z,0.35
2023-03-06T17:47:38.192Z,0.31
2023-03-06T17:50:06.980Z,0.28
2023-03-06T17:52:35.474Z,0.26
2023-03-06T17:55:03.712Z,0.26
2023-03-06T17:57:31.726Z,0.23
2023-03-06T17:59:59.872Z,0.22
2023-03-06T18:02:28.402Z,0.22
2023-03-06T18:04:58.197Z,0.17
2023-03-06T18:07:26.719Z,0.17
2023-03-06T18:09:54.821Z,0.14
2023-03-06T18:12:22.953Z,0.13
2023-03-06T18:14:51.044Z,0.14
2023-03-06T18:17:19.087Z,0.16
2023-03-06T18:19:47.177Z,0.14
2023-03-06T18:22:15.297Z,0.10
2023-03-06T18:24:43.368Z,0.09
2023-03-06T18:27:11.269Z,0.09
2023-03-06T18:29:39.258Z,0.07
2023-03-06T18:32:10.670Z,0.06
2023-03-06T18:34:38.820Z,0.06
2023-03-06T18:37:06.992Z,0.05
2023-03-06T18:39:35.276Z,0.05
2023-03-06T18:42:03.526Z,0.03
2023-03-06T18:44:31.503Z,-0.01
2023-03-06T18:46:59.703Z,-0.03
2023-03-06T18:49:28.051Z,-0.05
2023-03-06T18:51:56.408Z,-0.05
2023-03-06T18:54:28.389Z,-0.04
2023-03-06T18:56:56.655Z,-0.04
2023-03-06T18:59:25.973Z,-0.05
2023-03-06T19:01:57.655Z,-0.04
2023-03-06T19:04:27.133Z,-0.03
2023-03-06T19:06:55.456Z,-0.05
2023-03-06T19:09:23.638Z,-0.03
2023-03-06T19:11:53.733Z,-0.03
2023-03-06T19:14:23.010Z,-0.04
2023-03-06T19:16:51.183Z,-0.05
2023-03-06T19:19:20.074Z,-0.07
2023-03-06T19:21:50.356Z,-0.07
2023-03-06T19:24:18.342Z,-0.07
2023-03-06T19:26:46.253Z,-0.12
2023-03-06T19:29:14.315Z,-0.12
2023-03-06T19:31:42.572Z,-0.14
2023-03-06T19:34:10.851Z,-0.16
2023-03-06T19:36:40.935Z,-0.13
2023-03-06T19:39:09.739Z,-0.16
2023-03-06T19:41:37.870Z,-0.18
2023-03-06T19:44:06.250Z,-0.20
2023-03-06T19:46:36.189Z,-0.20
2023-03-06T19:49:11.780Z,-0.19
2023-03-06T19:51:40.666Z,-0.19
2023-03-06T19:54:11.374Z,-0.16
2023-03-06T19:56:40.098Z,-0.17
2023-03-06T19:59:08.025Z,-0.15
2023-03-06T20:01:36.034Z,-0.15
2023-03-06T20:04:03.994Z,-0.17
2023-03-06T20:06:33.863Z,-0.19
2023-03-06T20:09:04.845Z,-0.21
2023-03-06T20:11:32.809Z,-0.22
2023-03-06T20:14:03.778Z,-0.23
2023-03-06T20:16:32.821Z,-0.22
2023-03-06T20:19:02.166Z,-0.22
2023-03-06T20:21:35.405Z,-0.22
2023-03-06T20:24:05.080Z,-0.23
2023-03-06T20:26:34.928Z,-0.26
2023-03-06T20:29:02.951Z,-0.29
2023-03-06T20:31:31.066Z,-0.32
2023-03-06T20:33:59.866Z,-0.34
2023-03-06T20:36:37.247Z,-0.37
2023-03-06T20:39:09.046Z,-0.39
2023-03-06T20:41:37.105Z,-0.40
2023-03-06T20:44:07.277Z,-0.38
2023-03-06T20:46:35.335Z,-0.37
2023-03-06T20:49:05.273Z,-0.36
2023-03-06T20:51:37.532Z,-0.36
2023-03-06T20:54:07.541Z,-0.32
2023-03-06T20:56:36.945Z,-0.29
2023-03-06T20:59:05.939Z,-0.29
2023-03-06T21:01:38.403Z,-0.27
2023-03-06T21:04:08.739Z,-0.23
2023-03-06T21:06:39.798Z,-0.22
2023-03-06T21:09:07.776Z,-0.22
2023-03-06T21:11:35.849Z,-0.25
2023-03-06T21:14:04.153Z,-0.26
2023-03-06T21:16:32.239Z,-0.29
2023-03-06T21:19:00.615Z,-0.30
2023-03-06T21:21:31.483Z,-0.30
2023-03-06T21:24:00.420Z,-0.33
2023-03-06T21:26:30.509Z,-0.35
2023-03-06T21:28:59.706Z,-0.39
2023-03-06T21:31:28.674Z,-0.41
2023-03-06T21:33:58.763Z,-0.45
2023-03-06T21:36:27.971Z,-0.47
2023-03-06T21:38:56.093Z,-0.48
2023-03-06T21:41:27.782Z,-0.49
2023-03-06T21:43:57.543Z,-0.51
2023-03-06T21:46:26.325Z,-0.52
2023-03-06T21:48:57.889Z,-0.51
2023-03-06T21:51:27.166Z,-0.50
2023-03-06T21:53:55.935Z,-0.50
2023-03-06T21:56:25.524Z,-0.52
2023-03-06T21:58:53.862Z,-0.54
2023-03-06T22:01:25.028Z,-0.56
2023-03-06T22:03:53.939Z,-0.59
2023-03-06T22:06:27.653Z,-0.61
2023-03-06T22:08:59.619Z,-0.63
2023-03-06T22:11:31.680Z,-0.66
2023-03-06T22:14:04.521Z,-0.69
2023-03-06T22:16:34.395Z,-0.72
2023-03-06T22:19:02.839Z,-0.75
2023-03-06T22:21:31.027Z,-0.78
2023-03-06T22:24:01.061Z,-0.83
2023-03-06T22:26:29.944Z,-0.83
2023-03-06T22:28:58.260Z,-0.85
2023-03-06T22:31:28.550Z,-0.87
2023-03-06T22:33:59.032Z,-0.88
2023-03-06T22:36:28.286Z,-0.86
2023-03-06T22:38:59.341Z,-0.85
2023-03-06T22:41:28.243Z,-0.81
2023-03-06T22:44:00.721Z,-0.77
2023-03-06T22:46:29.897Z,-0.77
2023-03-06T22:48:59.212Z,-0.73
2023-03-06T22:51:28.339Z,-0.71
2023-03-06T22:53:56.684Z,-0.72
2023-03-06T22:56:25.273Z,-0.70
2023-03-06T22:58:53.415Z,-0.68
2023-03-06T23:01:25.323Z,-0.71
2023-03-06T23:03:56.278Z,-0.70
2023-03-06T23:06:28.299Z,-0.70
2023-03-06T23:09:04.218Z,-0.70
2023-03-06T23:11:33.109Z,-0.72
2023-03-06T23:14:19.787Z,-0.71
2023-03-06T23:17:06.397Z,-0.71
2023-03-06T23:19:53.334Z,-0.71
2023-03-06T23:22:39.787Z,-0.68
2023-03-06T23:25:26.197Z,-0.68
2023-03-06T23:27:55.747Z,-0.70
2023-03-06T23:30:23.766Z,-0.69
2023-03-06T23:32:51.730Z,-0.69
2023-03-06T23:35:20.296Z,-0.68
2023-03-06T23:37:48.252Z,-0.68
2023-03-06T23:40:16.921Z,-0.67
2023-03-06T23:42:45.411Z,-0.65
2023-03-06T23:45:13.732Z,-0.66
2023-03-06T23:47:42.189Z,-0.65
2023-03-06T23:50:11.014Z,-0.65
2023-03-06T23:52:40.472Z,-0.63
2023-03-06T23:55:08.991Z,-0.61
2023-03-06T23:57:37.188Z,-0.59
